sensor_id;sensor_type;location;lat;lon;timestamp;temperature;humidity
20432;DHT22;10375;49.136;10.366;2024-03-17T00:01:06;4.70;99.90
20432;DHT22;10375;49.136;10.366;2024-03-17T00:03:33;4.90;99.90
20432;DHT22;10375;49.136;10.366;2024-03-17T00:06:01;4.80;99.90
20432;DHT22;10375;49.136;10.366;2024-03-17T00:08:27;4.80;99.90
20432;DHT22;10375;49.136;10.366;2024-03-17T00:10:56;4.70;99.90
20432;DHT22;10375;49.136;10.366;2024-03-17T00:13:23;4.60;99.90
20432;DHT22;10375;49.136;10.366;2024-03-17T00:15:50;4.60;99.90
20432;DHT22;10375;49.136;10.366;2024-03-17T00:18:16;4.70;99.90
20432;DHT22;10375;49.136;10.366;2024-03-17T00:20:43;4.70;99.90
20432;DHT22;10375;49.136;10.366;2024-03-17T00:23:09;4.70;99.90
20432;DHT22;10375;49.136;10.366;2024-03-17T00:25:38;4.70;99.90
20432;DHT22;10375;49.136;10.366;2024-03-17T00:28:04;4.70;99.90
20432;DHT22;10375;49.136;10.366;2024-03-17T00:30:31;4.70;99.90
20432;DHT22;10375;49.136;10.366;2024-03-17T00:32:58;4.70;99.90
20432;DHT22;10375;49.136;10.366;2024-03-17T00:35:25;4.70;99.90
20432;DHT22;10375;49.136;10.366;2024-03-17T00:37:51;4.80;99.90
20432;DHT22;10375;49.136;10.366;2024-03-17T00:40:19;4.70;99.90
20432;DHT22;10375;49.136;10.366;2024-03-17T00:42:46;4.60;99.90
20432;DHT22;10375;49.136;10.366;2024-03-17T00:45:12;4.50;99.90
20432;DHT22;10375;49.136;10.366;2024-03-17T00:47:39;4.40;99.90
20432;DHT22;10375;49.136;10.366;2024-03-17T00:50:05;4.40;99.90
20432;DHT22;10375;49.136;10.366;2024-03-17T00:52:35;4.50;99.90
20432;DHT22;10375;49.136;10.366;2024-03-17T00:55:01;4.60;99.90
20432;DHT22;10375;49.136;10.366;2024-03-17T00:57:28;4.70;99.90
20432;DHT22;10375;49.136;10.366;2024-03-17T00:59:54;4.70;99.90
20432;DHT22;10375;49.136;10.366;2024-03-17T01:02:20;4.70;99.90
20432;DHT22;10375;49.136;10.366;2024-03-17T01:04:47;4.80;99.90
20432;DHT22;10375;49.136;10.366;2024-03-17T01:07:13;4.70;99.90
20432;DHT22;10375;49.136;10.366;2024-03-17T01:09:39;4.60;99.90
20432;DHT22;10375;49.136;10.366;2024-03-17T01:12:06;4.60;99.90
20432;DHT22;10375;49.136;10.366;2024-03-17T01:14:32;4.60;99.90
20432;DHT22;10375;49.136;10.366;2024-03-17T01:17:00;4.50;99.90
20432;DHT22;10375;49.136;10.366;2024-03-17T01:19:26;4.40;99.90
20432;DHT22;10375;49.136;10.366;2024-03-17T01:21:53;4.40;99.90
20432;DHT22;10375;49.136;10.366;2024-03-17T01:24:19;4.30;99.90
20432;DHT22;10375;49.136;10.366;2024-03-17T01:26:46;4.30;99.90
20432;DHT22;10375;49.136;10.366;2024-03-17T01:29:12;4.20;99.90
20432;DHT22;10375;49.136;10.366;2024-03-17T01:31:39;4.10;99.90
20432;DHT22;10375;49.136;10.366;2024-03-17T01:34:05;4.00;99.90
20432;DHT22;10375;49.136;10.366;2024-03-17T01:36:32;3.90;99.90
20432;DHT22;10375;49.136;10.366;2024-03-17T01:38:59;3.90;99.90
20432;DHT22;10375;49.136;10.366;2024-03-17T01:41:25;4.00;99.90
20432;DHT22;10375;49.136;10.366;2024-03-17T01:43:52;4.00;99.90
20432;DHT22;10375;49.136;10.366;2024-03-17T01:46:18;3.90;99.90
20432;DHT22;10375;49.136;10.366;2024-03-17T01:48:44;3.90;99.90
20432;DHT22;10375;49.136;10.366;2024-03-17T01:51:13;3.90;99.90
20432;DHT22;10375;49.136;10.366;2024-03-17T01:53:42;3.90;99.90
20432;DHT22;10375;49.136;10.366;2024-03-17T01:56:10;3.90;99.90
20432;DHT22;10375;49.136;10.366;2024-03-17T01:58:37;3.90;99.90
20432;DHT22;10375;49.136;10.366;2024-03-17T02:01:03;4.00;99.90
20432;DHT22;10375;49.136;10.366;2024-03-17T02:03:30;4.10;99.90
20432;DHT22;10375;49.136;10.366;2024-03-17T02:05:58;4.10;99.90
20432;DHT22;10375;49.136;10.366;2024-03-17T02:08:25;4.20;99.90
20432;DHT22;10375;49.136;10.366;2024-03-17T02:10:54;4.30;99.90
20432;DHT22;10375;49.136;10.366;2024-03-17T02:13:24;4.30;99.90
20432;DHT22;10375;49.136;10.366;2024-03-17T02:15:50;4.30;99.90
20432;DHT22;10375;49.136;10.366;2024-03-17T02:18:18;4.30;99.90
20432;DHT22;10375;49.136;10.366;2024-03-17T02:20:44;4.40;99.90
20432;DHT22;10375;49.136;10.366;2024-03-17T02:23:26;4.40;99.90
20432;DHT22;10375;49.136;10.366;2024-03-17T02:25:53;4.40;99.90
20432;DHT22;10375;49.136;10.366;2024-03-17T02:28:19;4.40;99.90
20432;DHT22;10375;49.136;10.366;2024-03-17T02:30:45;4.40;99.90
20432;DHT22;10375;49.136;10.366;2024-03-17T02:33:11;4.40;99.90
20432;DHT22;10375;49.136;10.366;2024-03-17T02:35:37;4.40;99.90
20432;DHT22;10375;49.136;10.366;2024-03-17T02:38:05;4.40;99.90
20432;DHT22;10375;49.136;10.366;2024-03-17T02:40:33;4.40;99.90
20432;DHT22;10375;49.136;10.366;2024-03-17T02:43:00;4.50;99.90
20432;DHT22;10375;49.136;10.366;2024-03-17T02:45:26;4.50;99.90
20432;DHT22;10375;49.136;10.366;2024-03-17T02:47:52;4.50;99.90
20432;DHT22;10375;49.136;10.366;2024-03-17T02:50:18;4.50;99.90
20432;DHT22;10375;49.136;10.366;2024-03-17T02:52:44;4.50;99.90
20432;DHT22;10375;49.136;10.366;2024-03-17T02:55:10;4.60;99.90
20432;DHT22;10375;49.136;10.366;2024-03-17T02:57:36;4.60;99.90
20432;DHT22;10375;49.136;10.366;2024-03-17T03:00:03;4.50;99.90
20432;DHT22;10375;49.136;10.366;2024-03-17T03:02:31;4.50;99.90
20432;DHT22;10375;49.136;10.366;2024-03-17T03:04:58;4.50;99.90
20432;DHT22;10375;49.136;10.366;2024-03-17T03:07:24;4.50;99.90
20432;DHT22;10375;49.136;10.366;2024-03-17T03:09:51;4.60;99.90
20432;DHT22;10375;49.136;10.366;2024-03-17T03:12:17;4.50;99.90
20432;DHT22;10375;49.136;10.366;2024-03-17T03:14:43;4.50;99.90
20432;DHT22;10375;49.136;10.366;2024-03-17T03:17:09;4.50;99.90
20432;DHT22;10375;49.136;10.366;2024-03-17T03:19:35;4.40;99.90
20432;DHT22;10375;49.136;10.366;2024-03-17T03:22:03;4.40;99.90
20432;DHT22;10375;49.136;10.366;2024-03-17T03:24:29;4.30;99.90
20432;DHT22;10375;49.136;10.366;2024-03-17T03:26:55;4.30;99.90
20432;DHT22;10375;49.136;10.366;2024-03-17T03:29:21;4.20;99.90
20432;DHT22;10375;49.136;10.366;2024-03-17T03:31:47;4.00;99.90
20432;DHT22;10375;49.136;10.366;2024-03-17T03:34:14;4.00;99.90
20432;DHT22;10375;49.136;10.366;2024-03-17T03:36:40;4.00;99.90
20432;DHT22;10375;49.136;10.366;2024-03-17T03:39:07;4.00;99.90
20432;DHT22;10375;49.136;10.366;2024-03-17T03:41:38;4.00;99.90
20432;DHT22;10375;49.136;10.366;2024-03-17T03:44:04;3.90;99.90
20432;DHT22;10375;49.136;10.366;2024-03-17T03:46:30;4.00;99.90
20432;DHT22;10375;49.136;10.366;2024-03-17T03:48:56;4.00;99.90
20432;DHT22;10375;49.136;10.366;2024-03-17T03:51:22;3.90;99.90
20432;DHT22;10375;49.136;10.366;2024-03-17T03:53:51;4.00;99.90
20432;DHT22;10375;49.136;10.366;2024-03-17T03:56:17;4.00;99.90
20432;DHT22;10375;49.136;10.366;2024-03-17T03:58:43;4.10;99.90
20432;DHT22;10375;49.136;10.366;2024-03-17T04:01:12;4.30;99.90
20432;DHT22;10375;49.136;10.366;2024-03-17T04:03:38;4.30;99.90
20432;DHT22;10375;49.136;10.366;2024-03-17T04:06:06;4.30;99.90
20432;DHT22;10375;49.136;10.366;2024-03-17T04:08:33;4.30;99.90
20432;DHT22;10375;49.136;10.366;2024-03-17T04:11:00;4.40;99.90
20432;DHT22;10375;49.136;10.366;2024-03-17T04:13:28;4.30;99.90
20432;DHT22;10375;49.136;10.366;2024-03-17T04:15:57;4.40;99.90
20432;DHT22;10375;49.136;10.366;2024-03-17T04:18:25;4.40;99.90
20432;DHT22;10375;49.136;10.366;2024-03-17T04:20:55;4.30;99.90
20432;DHT22;10375;49.136;10.366;2024-03-17T04:23:23;4.40;99.90
20432;DHT22;10375;49.136;10.366;2024-03-17T04:25:51;4.40;99.90
20432;DHT22;10375;49.136;10.366;2024-03-17T04:28:17;4.40;99.90
20432;DHT22;10375;49.136;10.366;2024-03-17T04:30:43;4.40;99.90
20432;DHT22;10375;49.136;10.366;2024-03-17T04:33:10;4.40;99.90
20432;DHT22;10375;49.136;10.366;2024-03-17T04:35:37;4.40;99.90
20432;DHT22;10375;49.136;10.366;2024-03-17T04:38:04;4.40;99.90
20432;DHT22;10375;49.136;10.366;2024-03-17T04:40:39;4.40;99.90
20432;DHT22;10375;49.136;10.366;2024-03-17T04:43:06;4.40;99.90
20432;DHT22;10375;49.136;10.366;2024-03-17T04:45:32;4.30;99.90
20432;DHT22;10375;49.136;10.366;2024-03-17T04:47:58;4.20;99.90
20432;DHT22;10375;49.136;10.366;2024-03-17T04:50:25;4.10;99.90
20432;DHT22;10375;49.136;10.366;2024-03-17T04:52:52;4.10;99.90
20432;DHT22;10375;49.136;10.366;2024-03-17T04:55:18;4.00;99.90
20432;DHT22;10375;49.136;10.366;2024-03-17T04:57:45;4.00;99.90
20432;DHT22;10375;49.136;10.366;2024-03-17T05:00:13;3.90;99.90
20432;DHT22;10375;49.136;10.366;2024-03-17T05:02:41;3.90;99.90
20432;DHT22;10375;49.136;10.366;2024-03-17T05:05:10;3.90;99.90
20432;DHT22;10375;49.136;10.366;2024-03-17T05:07:36;3.90;99.90
20432;DHT22;10375;49.136;10.366;2024-03-17T05:10:05;3.90;99.90
20432;DHT22;10375;49.136;10.366;2024-03-17T05:12:31;3.80;99.90
20432;DHT22;10375;49.136;10.366;2024-03-17T05:14:58;3.80;99.90
20432;DHT22;10375;49.136;10.366;2024-03-17T05:17:24;3.70;99.90
20432;DHT22;10375;49.136;10.366;2024-03-17T05:19:50;3.70;99.90
20432;DHT22;10375;49.136;10.366;2024-03-17T05:22:16;3.70;99.90
20432;DHT22;10375;49.136;10.366;2024-03-17T05:24:42;3.70;99.90
20432;DHT22;10375;49.136;10.366;2024-03-17T05:27:08;3.70;99.90
20432;DHT22;10375;49.136;10.366;2024-03-17T05:29:34;3.70;99.90
20432;DHT22;10375;49.136;10.366;2024-03-17T05:32:04;3.60;99.90
20432;DHT22;10375;49.136;10.366;2024-03-17T05:34:31;3.50;99.90
20432;DHT22;10375;49.136;10.366;2024-03-17T05:36:58;3.50;99.90
20432;DHT22;10375;49.136;10.366;2024-03-17T05:39:24;3.60;99.90
20432;DHT22;10375;49.136;10.366;2024-03-17T05:41:51;3.60;99.90
20432;DHT22;10375;49.136;10.366;2024-03-17T05:44:17;3.60;99.90
20432;DHT22;10375;49.136;10.366;2024-03-17T05:46:43;3.60;99.90
20432;DHT22;10375;49.136;10.366;2024-03-17T05:49:09;3.70;99.90
20432;DHT22;10375;49.136;10.366;2024-03-17T05:51:37;3.70;99.90
20432;DHT22;10375;49.136;10.366;2024-03-17T05:54:03;3.70;99.90
20432;DHT22;10375;49.136;10.366;2024-03-17T05:56:29;3.80;99.90
20432;DHT22;10375;49.136;10.366;2024-03-17T05:58:55;3.80;99.90
20432;DHT22;10375;49.136;10.366;2024-03-17T06:01:21;3.80;99.90
20432;DHT22;10375;49.136;10.366;2024-03-17T06:03:55;3.90;99.90
20432;DHT22;10375;49.136;10.366;2024-03-17T06:06:21;4.00;99.90
20432;DHT22;10375;49.136;10.366;2024-03-17T06:08:48;4.00;99.90
20432;DHT22;10375;49.136;10.366;2024-03-17T06:11:15;4.10;99.90
20432;DHT22;10375;49.136;10.366;2024-03-17T06:13:41;4.10;99.90
20432;DHT22;10375;49.136;10.366;2024-03-17T06:16:07;4.20;99.90
20432;DHT22;10375;49.136;10.366;2024-03-17T06:18:34;4.10;99.90
20432;DHT22;10375;49.136;10.366;2024-03-17T06:21:00;4.20;99.90
20432;DHT22;10375;49.136;10.366;2024-03-17T06:23:26;4.20;99.90
20432;DHT22;10375;49.136;10.366;2024-03-17T06:25:53;4.30;99.90
20432;DHT22;10375;49.136;10.366;2024-03-17T06:28:21;4.30;99.90
20432;DHT22;10375;49.136;10.366;2024-03-17T06:30:59;4.40;99.90
20432;DHT22;10375;49.136;10.366;2024-03-17T06:33:26;4.90;99.90
20432;DHT22;10375;49.136;10.366;2024-03-17T06:36:01;5.60;99.90
20432;DHT22;10375;49.136;10.366;2024-03-17T06:38:28;6.40;99.90
20432;DHT22;10375;49.136;10.366;2024-03-17T06:40:54;6.90;99.90
20432;DHT22;10375;49.136;10.366;2024-03-17T06:43:20;7.30;99.90
20432;DHT22;10375;49.136;10.366;2024-03-17T06:45:56;7.60;99.90
20432;DHT22;10375;49.136;10.366;2024-03-17T06:48:23;7.80;99.90
20432;DHT22;10375;49.136;10.366;2024-03-17T06:50:49;8.30;99.90
20432;DHT22;10375;49.136;10.366;2024-03-17T06:53:18;8.60;99.90
20432;DHT22;10375;49.136;10.366;2024-03-17T06:55:53;8.70;99.90
20432;DHT22;10375;49.136;10.366;2024-03-17T06:58:21;9.00;99.90
20432;DHT22;10375;49.136;10.366;2024-03-17T07:00:57;9.10;99.90
20432;DHT22;10375;49.136;10.366;2024-03-17T07:03:26;9.40;99.90
20432;DHT22;10375;49.136;10.366;2024-03-17T07:05:56;9.90;99.90
20432;DHT22;10375;49.136;10.366;2024-03-17T07:08:26;11.00;99.90
20432;DHT22;10375;49.136;10.366;2024-03-17T07:11:06;12.00;99.90
20432;DHT22;10375;49.136;10.366;2024-03-17T07:13:34;12.50;99.90
20432;DHT22;10375;49.136;10.366;2024-03-17T07:16:03;12.90;99.90
20432;DHT22;10375;49.136;10.366;2024-03-17T07:18:32;13.20;99.90
20432;DHT22;10375;49.136;10.366;2024-03-17T07:21:03;13.20;99.90
20432;DHT22;10375;49.136;10.366;2024-03-17T07:23:36;13.60;99.90
20432;DHT22;10375;49.136;10.366;2024-03-17T07:26:03;14.30;99.90
20432;DHT22;10375;49.136;10.366;2024-03-17T07:28:32;14.20;99.90
20432;DHT22;10375;49.136;10.366;2024-03-17T07:30:59;13.80;99.90
20432;DHT22;10375;49.136;10.366;2024-03-17T07:33:30;13.60;99.90
20432;DHT22;10375;49.136;10.366;2024-03-17T07:35:57;12.70;99.90
20432;DHT22;10375;49.136;10.366;2024-03-17T07:38:27;11.80;99.90
20432;DHT22;10375;49.136;10.366;2024-03-17T07:41:04;12.30;99.90
20432;DHT22;10375;49.136;10.366;2024-03-17T07:43:37;14.20;99.90
20432;DHT22;10375;49.136;10.366;2024-03-17T07:46:05;15.30;99.90
20432;DHT22;10375;49.136;10.366;2024-03-17T07:48:36;15.70;99.90
20432;DHT22;10375;49.136;10.366;2024-03-17T07:53:36;17.00;99.90
20432;DHT22;10375;49.136;10.366;2024-03-17T07:56:08;17.20;99.90
20432;DHT22;10375;49.136;10.366;2024-03-17T07:58:39;17.40;99.90
20432;DHT22;10375;49.136;10.366;2024-03-17T08:01:07;17.70;99.90
20432;DHT22;10375;49.136;10.366;2024-03-17T08:03:37;17.90;99.90
20432;DHT22;10375;49.136;10.366;2024-03-17T08:06:05;17.90;99.90
20432;DHT22;10375;49.136;10.366;2024-03-17T08:08:32;17.90;99.90
20432;DHT22;10375;49.136;10.366;2024-03-17T08:10:59;17.20;99.90
20432;DHT22;10375;49.136;10.366;2024-03-17T08:13:25;16.50;99.90
20432;DHT22;10375;49.136;10.366;2024-03-17T08:15:59;16.00;99.90
20432;DHT22;10375;49.136;10.366;2024-03-17T08:18:26;15.70;99.90
20432;DHT22;10375;49.136;10.366;2024-03-17T08:20:53;15.40;99.90
20432;DHT22;10375;49.136;10.366;2024-03-17T08:23:23;15.10;99.90
20432;DHT22;10375;49.136;10.366;2024-03-17T08:25:55;14.40;99.90
20432;DHT22;10375;49.136;10.366;2024-03-17T08:28:22;13.80;99.90
20432;DHT22;10375;49.136;10.366;2024-03-17T08:31:02;13.50;99.90
20432;DHT22;10375;49.136;10.366;2024-03-17T08:33:30;13.20;99.90
20432;DHT22;10375;49.136;10.366;2024-03-17T08:36:04;12.90;99.90
20432;DHT22;10375;49.136;10.366;2024-03-17T08:38:32;12.80;99.90
20432;DHT22;10375;49.136;10.366;2024-03-17T08:41:06;12.70;99.90
20432;DHT22;10375;49.136;10.366;2024-03-17T08:43:33;12.80;99.90
20432;DHT22;10375;49.136;10.366;2024-03-17T08:46:00;13.10;99.90
20432;DHT22;10375;49.136;10.366;2024-03-17T08:48:28;13.30;99.90
20432;DHT22;10375;49.136;10.366;2024-03-17T08:50:55;13.10;99.90
20432;DHT22;10375;49.136;10.366;2024-03-17T08:53:22;13.30;99.90
20432;DHT22;10375;49.136;10.366;2024-03-17T08:55:48;13.60;99.90
20432;DHT22;10375;49.136;10.366;2024-03-17T08:58:16;13.60;99.90
20432;DHT22;10375;49.136;10.366;2024-03-17T09:00:42;13.70;99.90
20432;DHT22;10375;49.136;10.366;2024-03-17T09:03:09;13.80;99.90
20432;DHT22;10375;49.136;10.366;2024-03-17T09:05:37;13.90;99.90
20432;DHT22;10375;49.136;10.366;2024-03-17T09:08:03;13.80;99.90
20432;DHT22;10375;49.136;10.366;2024-03-17T09:10:30;13.80;99.90
20432;DHT22;10375;49.136;10.366;2024-03-17T09:12:56;13.70;99.90
20432;DHT22;10375;49.136;10.366;2024-03-17T09:15:22;13.70;99.90
20432;DHT22;10375;49.136;10.366;2024-03-17T09:17:48;13.80;99.90
20432;DHT22;10375;49.136;10.366;2024-03-17T09:20:14;14.00;99.90
20432;DHT22;10375;49.136;10.366;2024-03-17T09:22:41;14.10;99.90
20432;DHT22;10375;49.136;10.366;2024-03-17T09:25:10;14.40;99.90
20432;DHT22;10375;49.136;10.366;2024-03-17T09:27:37;14.50;99.90
20432;DHT22;10375;49.136;10.366;2024-03-17T09:30:04;14.70;99.90
20432;DHT22;10375;49.136;10.366;2024-03-17T09:32:37;14.60;99.90
20432;DHT22;10375;49.136;10.366;2024-03-17T09:35:04;14.90;99.90
20432;DHT22;10375;49.136;10.366;2024-03-17T09:37:31;14.80;99.90
20432;DHT22;10375;49.136;10.366;2024-03-17T09:40:00;14.30;99.90
20432;DHT22;10375;49.136;10.366;2024-03-17T09:42:27;13.80;99.90
20432;DHT22;10375;49.136;10.366;2024-03-17T09:44:54;13.60;99.90
20432;DHT22;10375;49.136;10.366;2024-03-17T09:47:23;13.50;99.90
20432;DHT22;10375;49.136;10.366;2024-03-17T09:49:50;13.60;99.90
20432;DHT22;10375;49.136;10.366;2024-03-17T09:52:25;13.60;99.90
20432;DHT22;10375;49.136;10.366;2024-03-17T09:55:08;13.60;99.90
20432;DHT22;10375;49.136;10.366;2024-03-17T09:57:37;14.00;99.90
20432;DHT22;10375;49.136;10.366;2024-03-17T10:00:11;14.60;99.90
20432;DHT22;10375;49.136;10.366;2024-03-17T10:02:46;15.10;99.90
20432;DHT22;10375;49.136;10.366;2024-03-17T10:05:24;15.10;99.90
20432;DHT22;10375;49.136;10.366;2024-03-17T10:07:51;14.80;99.90
20432;DHT22;10375;49.136;10.366;2024-03-17T10:10:18;14.70;99.90
20432;DHT22;10375;49.136;10.366;2024-03-17T10:12:50;14.60;99.90
20432;DHT22;10375;49.136;10.366;2024-03-17T10:15:20;14.50;99.90
20432;DHT22;10375;49.136;10.366;2024-03-17T10:17:47;14.30;99.90
20432;DHT22;10375;49.136;10.366;2024-03-17T10:20:17;14.30;99.90
20432;DHT22;10375;49.136;10.366;2024-03-17T10:23:06;14.30;99.90
20432;DHT22;10375;49.136;10.366;2024-03-17T10:25:39;14.20;99.90
20432;DHT22;10375;49.136;10.366;2024-03-17T10:28:12;14.20;99.90
20432;DHT22;10375;49.136;10.366;2024-03-17T10:30:39;14.20;99.90
20432;DHT22;10375;49.136;10.366;2024-03-17T10:33:07;14.20;99.90
20432;DHT22;10375;49.136;10.366;2024-03-17T10:35:37;14.10;99.90
20432;DHT22;10375;49.136;10.366;2024-03-17T10:38:09;14.10;99.90
20432;DHT22;10375;49.136;10.366;2024-03-17T10:40:35;14.30;99.90
20432;DHT22;10375;49.136;10.366;2024-03-17T10:43:05;14.90;99.90
20432;DHT22;10375;49.136;10.366;2024-03-17T10:45:32;15.10;99.90
20432;DHT22;10375;49.136;10.366;2024-03-17T10:48:08;15.30;99.90
20432;DHT22;10375;49.136;10.366;2024-03-17T10:50:36;15.40;99.90
20432;DHT22;10375;49.136;10.366;2024-03-17T10:53:07;15.40;99.90
20432;DHT22;10375;49.136;10.366;2024-03-17T10:55:44;15.20;99.90
20432;DHT22;10375;49.136;10.366;2024-03-17T11:01:01;14.90;99.90
20432;DHT22;10375;49.136;10.366;2024-03-17T11:03:34;15.00;99.90
20432;DHT22;10375;49.136;10.366;2024-03-17T11:06:04;15.20;99.90
20432;DHT22;10375;49.136;10.366;2024-03-17T11:08:35;15.90;99.90
20432;DHT22;10375;49.136;10.366;2024-03-17T11:11:02;16.60;99.90
20432;DHT22;10375;49.136;10.366;2024-03-17T11:13:31;16.80;99.90
20432;DHT22;10375;49.136;10.366;2024-03-17T11:15:58;16.90;99.90
20432;DHT22;10375;49.136;10.366;2024-03-17T11:21:22;16.50;99.90
20432;DHT22;10375;49.136;10.366;2024-03-17T11:24:01;16.20;99.90
20432;DHT22;10375;49.136;10.366;2024-03-17T11:26:33;16.00;99.90
20432;DHT22;10375;49.136;10.366;2024-03-17T11:29:00;16.00;99.90
20432;DHT22;10375;49.136;10.366;2024-03-17T11:31:48;16.20;99.90
20432;DHT22;10375;49.136;10.366;2024-03-17T11:34:28;16.10;99.90
20432;DHT22;10375;49.136;10.366;2024-03-17T11:36:56;15.90;99.90
20432;DHT22;10375;49.136;10.366;2024-03-17T11:39:45;15.60;99.90
20432;DHT22;10375;49.136;10.366;2024-03-17T11:42:13;15.40;99.90
20432;DHT22;10375;49.136;10.366;2024-03-17T11:44:43;15.40;99.90
20432;DHT22;10375;49.136;10.366;2024-03-17T11:47:09;15.30;99.90
20432;DHT22;10375;49.136;10.366;2024-03-17T11:49:37;15.30;99.90
20432;DHT22;10375;49.136;10.366;2024-03-17T11:52:11;15.30;99.90
20432;DHT22;10375;49.136;10.366;2024-03-17T11:54:40;15.40;99.90
20432;DHT22;10375;49.136;10.366;2024-03-17T11:57:14;15.50;99.90
20432;DHT22;10375;49.136;10.366;2024-03-17T11:59:45;15.80;99.90
20432;DHT22;10375;49.136;10.366;2024-03-17T12:02:29;15.70;99.90
20432;DHT22;10375;49.136;10.366;2024-03-17T12:05:00;15.50;99.90
20432;DHT22;10375;49.136;10.366;2024-03-17T12:07:27;15.40;99.90
20432;DHT22;10375;49.136;10.366;2024-03-17T12:09:56;15.30;99.90
20432;DHT22;10375;49.136;10.366;2024-03-17T12:12:27;15.20;99.90
20432;DHT22;10375;49.136;10.366;2024-03-17T12:15:10;15.40;99.90
20432;DHT22;10375;49.136;10.366;2024-03-17T12:17:42;15.80;99.90
20432;DHT22;10375;49.136;10.366;2024-03-17T12:20:17;16.20;99.90
20432;DHT22;10375;49.136;10.366;2024-03-17T12:22:43;16.70;99.90
20432;DHT22;10375;49.136;10.366;2024-03-17T12:25:20;17.00;99.90
20432;DHT22;10375;49.136;10.366;2024-03-17T12:27:47;16.90;99.90
20432;DHT22;10375;49.136;10.366;2024-03-17T12:30:15;16.60;99.90
20432;DHT22;10375;49.136;10.366;2024-03-17T12:32:44;16.20;99.90
20432;DHT22;10375;49.136;10.366;2024-03-17T12:35:14;15.80;99.90
20432;DHT22;10375;49.136;10.366;2024-03-17T12:37:43;15.70;99.90
20432;DHT22;10375;49.136;10.366;2024-03-17T12:40:21;15.70;99.90
20432;DHT22;10375;49.136;10.366;2024-03-17T12:42:51;16.00;99.90
20432;DHT22;10375;49.136;10.366;2024-03-17T12:45:23;16.50;99.90
20432;DHT22;10375;49.136;10.366;2024-03-17T12:47:52;16.80;99.90
20432;DHT22;10375;49.136;10.366;2024-03-17T12:50:21;17.00;99.90
20432;DHT22;10375;49.136;10.366;2024-03-17T12:52:55;17.20;99.90
20432;DHT22;10375;49.136;10.366;2024-03-17T12:55:22;17.50;99.90
20432;DHT22;10375;49.136;10.366;2024-03-17T12:58:10;17.80;99.90
20432;DHT22;10375;49.136;10.366;2024-03-17T13:01:03;17.80;99.90
20432;DHT22;10375;49.136;10.366;2024-03-17T13:03:34;17.50;99.90
20432;DHT22;10375;49.136;10.366;2024-03-17T13:06:09;17.20;99.90
20432;DHT22;10375;49.136;10.366;2024-03-17T13:08:36;16.80;99.90
20432;DHT22;10375;49.136;10.366;2024-03-17T13:11:02;16.50;99.90
20432;DHT22;10375;49.136;10.366;2024-03-17T13:13:29;16.30;99.90
20432;DHT22;10375;49.136;10.366;2024-03-17T13:15:56;16.30;99.90
20432;DHT22;10375;49.136;10.366;2024-03-17T13:18:22;16.30;99.90
20432;DHT22;10375;49.136;10.366;2024-03-17T13:20:48;16.40;99.90
20432;DHT22;10375;49.136;10.366;2024-03-17T13:23:20;16.50;99.90
20432;DHT22;10375;49.136;10.366;2024-03-17T13:25:51;16.40;99.90
20432;DHT22;10375;49.136;10.366;2024-03-17T13:28:17;16.00;99.90
20432;DHT22;10375;49.136;10.366;2024-03-17T13:30:46;15.90;99.90
20432;DHT22;10375;49.136;10.366;2024-03-17T13:33:13;15.80;99.90
20432;DHT22;10375;49.136;10.366;2024-03-17T13:35:41;15.90;99.90
20432;DHT22;10375;49.136;10.366;2024-03-17T13:38:11;15.80;99.90
20432;DHT22;10375;49.136;10.366;2024-03-17T13:40:42;15.80;99.90
20432;DHT22;10375;49.136;10.366;2024-03-17T13:43:09;15.70;99.90
20432;DHT22;10375;49.136;10.366;2024-03-17T13:45:40;15.70;99.90
20432;DHT22;10375;49.136;10.366;2024-03-17T13:48:07;15.60;99.90
20432;DHT22;10375;49.136;10.366;2024-03-17T13:50:38;15.50;99.90
20432;DHT22;10375;49.136;10.366;2024-03-17T13:53:05;15.40;99.90
20432;DHT22;10375;49.136;10.366;2024-03-17T13:55:44;15.30;99.90
20432;DHT22;10375;49.136;10.366;2024-03-17T13:58:12;15.20;99.90
20432;DHT22;10375;49.136;10.366;2024-03-17T14:00:38;15.20;99.90
20432;DHT22;10375;49.136;10.366;2024-03-17T14:03:07;15.10;99.90
20432;DHT22;10375;49.136;10.366;2024-03-17T14:05:35;15.00;99.90
20432;DHT22;10375;49.136;10.366;2024-03-17T14:08:16;15.00;99.90
20432;DHT22;10375;49.136;10.366;2024-03-17T14:10:42;14.90;99.90
20432;DHT22;10375;49.136;10.366;2024-03-17T14:13:08;14.60;99.90
20432;DHT22;10375;49.136;10.366;2024-03-17T14:15:34;14.60;99.90
20432;DHT22;10375;49.136;10.366;2024-03-17T14:18:00;14.60;99.90
20432;DHT22;10375;49.136;10.366;2024-03-17T14:20:26;14.70;99.90
20432;DHT22;10375;49.136;10.366;2024-03-17T14:22:52;14.60;99.90
20432;DHT22;10375;49.136;10.366;2024-03-17T14:25:20;14.60;99.90
20432;DHT22;10375;49.136;10.366;2024-03-17T14:27:52;14.50;99.90
20432;DHT22;10375;49.136;10.366;2024-03-17T14:30:21;14.50;99.90
20432;DHT22;10375;49.136;10.366;2024-03-17T14:32:54;14.60;99.90
20432;DHT22;10375;49.136;10.366;2024-03-17T14:35:22;14.60;99.90
20432;DHT22;10375;49.136;10.366;2024-03-17T14:37:48;14.60;99.90
20432;DHT22;10375;49.136;10.366;2024-03-17T14:40:16;14.60;99.90
20432;DHT22;10375;49.136;10.366;2024-03-17T14:42:50;14.60;99.90
20432;DHT22;10375;49.136;10.366;2024-03-17T14:45:17;14.70;99.90
20432;DHT22;10375;49.136;10.366;2024-03-17T14:47:44;14.60;99.90
20432;DHT22;10375;49.136;10.366;2024-03-17T14:50:11;14.70;99.90
20432;DHT22;10375;49.136;10.366;2024-03-17T14:52:42;14.70;99.90
20432;DHT22;10375;49.136;10.366;2024-03-17T14:55:11;14.60;99.90
20432;DHT22;10375;49.136;10.366;2024-03-17T14:57:38;14.60;99.90
20432;DHT22;10375;49.136;10.366;2024-03-17T15:00:12;14.50;99.90
20432;DHT22;10375;49.136;10.366;2024-03-17T15:02:47;14.40;99.90
20432;DHT22;10375;49.136;10.366;2024-03-17T15:05:15;14.30;99.90
20432;DHT22;10375;49.136;10.366;2024-03-17T15:07:42;14.30;99.90
20432;DHT22;10375;49.136;10.366;2024-03-17T15:10:11;14.20;99.90
20432;DHT22;10375;49.136;10.366;2024-03-17T15:12:41;14.20;99.90
20432;DHT22;10375;49.136;10.366;2024-03-17T15:15:09;14.10;99.90
20432;DHT22;10375;49.136;10.366;2024-03-17T15:17:36;14.00;99.90
20432;DHT22;10375;49.136;10.366;2024-03-17T15:20:05;14.00;99.90
20432;DHT22;10375;49.136;10.366;2024-03-17T15:22:46;14.00;99.90
20432;DHT22;10375;49.136;10.366;2024-03-17T15:25:17;14.00;99.90
20432;DHT22;10375;49.136;10.366;2024-03-17T15:27:46;13.80;99.90
20432;DHT22;10375;49.136;10.366;2024-03-17T15:30:14;13.80;99.90
20432;DHT22;10375;49.136;10.366;2024-03-17T15:32:43;13.80;99.90
20432;DHT22;10375;49.136;10.366;2024-03-17T15:35:16;13.70;99.90
20432;DHT22;10375;49.136;10.366;2024-03-17T15:37:42;13.60;99.90
20432;DHT22;10375;49.136;10.366;2024-03-17T15:40:12;13.60;99.90